Terminal Aerodrome Forecast
Issued by NWS Buffalo, NY

Home | Current Version | Previous Version | Text Only | Print | Product List | Glossary On
Versions: 1 2 3 4 5 6 7 8 9 10 11 12 13 14 15 16 17 18 19 20 21 22 23 24 25
000
FTUS41 KBUF 041720
TAFART
TAF
KART 041720Z 0418/0518 28008KT P6SM BKN050
     FM042000 26008KT P6SM SCT050
     FM042300 25009KT P6SM FEW250
     FM050500 25007KT P6SM FEW050=

USA.gov is the U.S. government's official web portal to all federal, state and local government web resources and services.